createdAt,value
2023-04-25T00:02:20.562Z,79.73
2023-04-25T00:04:50.556Z,79.64
2023-04-25T00:07:18.612Z,80.22
2023-04-25T00:09:47.039Z,79.56
2023-04-25T00:12:14.927Z,79.58
2023-04-25T00:14:42.513Z,79.42
2023-04-25T00:17:10.128Z,79.24
2023-04-25T00:19:38.767Z,79.46
2023-04-25T00:22:08.329Z,79.53
2023-04-25T00:24:35.918Z,79.85
2023-04-25T00:27:03.677Z,80.17
2023-04-25T00:29:31.319Z,79.73
2023-04-25T00:31:59.200Z,80.39
2023-04-25T00:34:26.887Z,80.74
2023-04-25T00:36:54.564Z,80.62
2023-04-25T00:39:23.545Z,82.12
2023-04-25T00:41:54.257Z,82.57
2023-04-25T00:44:22.636Z,81.83
2023-04-25T00:46:50.683Z,80.88
2023-04-25T00:49:18.621Z,80.83
2023-04-25T00:51:46.780Z,80.21
2023-04-25T00:54:16.352Z,80.21
2023-04-25T00:56:46.349Z,80.02
2023-04-25T00:59:14.560Z,80.11
2023-04-25T01:01:45.085Z,80.22
2023-04-25T01:04:13.069Z,79.94
2023-04-25T01:06:41.929Z,79.50
2023-04-25T01:09:10.594Z,79.04
2023-04-25T01:11:38.244Z,78.25
2023-04-25T01:14:07.350Z,78.32
2023-04-25T01:16:35.076Z,77.97
2023-04-25T01:19:03.352Z,78.15
2023-04-25T01:21:33.047Z,77.66
2023-04-25T01:24:01.162Z,77.96
2023-04-25T01:26:29.451Z,77.61
2023-04-25T01:28:58.106Z,77.76
2023-04-25T01:31:26.073Z,77.70
2023-04-25T01:33:54.295Z,77.85
2023-04-25T01:36:23.473Z,78.39
2023-04-25T01:38:53.422Z,78.48
2023-04-25T01:41:21.179Z,78.29
2023-04-25T01:43:49.928Z,77.71
2023-04-25T01:46:18.639Z,78.17
2023-04-25T01:48:46.717Z,78.27
2023-04-25T01:51:14.830Z,77.68
2023-04-25T01:53:42.940Z,77.56
2023-04-25T01:56:12.072Z,77.09
2023-04-25T01:58:40.861Z,76.96
2023-04-25T02:01:08.474Z,77.18
2023-04-25T02:03:43.913Z,77.04
2023-04-25T02:06:27.001Z,77.18
2023-04-25T02:08:57.355Z,77.21
2023-04-25T02:11:26.376Z,77.75
2023-04-25T02:14:08.093Z,77.37
2023-04-25T02:16:44.843Z,78.77
2023-04-25T02:19:12.785Z,81.50
2023-04-25T02:21:41.188Z,82.64
2023-04-25T02:24:10.078Z,82.17
2023-04-25T02:26:39.511Z,81.17
2023-04-25T02:29:10.123Z,79.35
2023-04-25T02:31:38.169Z,78.32
2023-04-25T02:34:06.280Z,79.12
2023-04-25T02:36:37.056Z,78.94
2023-04-25T02:39:04.853Z,78.43
2023-04-25T02:41:32.699Z,78.08
2023-04-25T02:44:01.695Z,80.85
2023-04-25T02:46:39.120Z,81.04
2023-04-25T02:49:08.048Z,80.74
2023-04-25T02:51:36.832Z,80.33
2023-04-25T02:54:04.794Z,79.47
2023-04-25T02:56:36.931Z,79.55
2023-04-25T02:59:08.038Z,78.60
2023-04-25T03:01:37.167Z,77.80
2023-04-25T03:04:04.926Z,78.41
2023-04-25T03:06:32.872Z,79.75
2023-04-25T03:09:00.893Z,78.69
2023-04-25T03:11:28.679Z,78.40
2023-04-25T03:13:56.690Z,78.02
2023-04-25T03:16:26.147Z,77.35
2023-04-25T03:18:53.822Z,77.00
2023-04-25T03:21:21.476Z,76.61
2023-04-25T03:23:49.456Z,75.74
2023-04-25T03:26:17.313Z,75.67
2023-04-25T03:28:45.813Z,75.45
2023-04-25T03:31:14.204Z,76.20
2023-04-25T03:33:43.323Z,76.36
2023-04-25T03:36:11.539Z,76.47
2023-04-25T03:38:39.945Z,75.97
2023-04-25T03:41:08.084Z,75.88
2023-04-25T03:43:43.366Z,75.54
2023-04-25T03:46:14.059Z,76.03
2023-04-25T03:48:44.604Z,75.95
2023-04-25T03:51:17.950Z,76.55
2023-04-25T03:53:46.842Z,76.17
2023-04-25T03:56:17.071Z,76.29
2023-04-25T03:58:47.495Z,76.40
2023-04-25T04:01:17.330Z,76.76
2023-04-25T04:03:46.739Z,77.56
2023-04-25T04:06:14.821Z,77.49
2023-04-25T04:08:46.590Z,78.21
2023-04-25T04:11:14.251Z,78.39
2023-04-25T04:13:42.113Z,78.58
2023-04-25T04:16:10.159Z,78.63
2023-04-25T04:18:38.275Z,78.84
2023-04-25T04:21:07.275Z,79.28
2023-04-25T04:23:39.689Z,78.88
2023-04-25T04:26:09.671Z,78.69
2023-04-25T04:29:01.370Z,79.85
2023-04-25T04:31:41.842Z,79.89
2023-04-25T04:34:10.467Z,80.01
2023-04-25T04:36:40.983Z,80.39
2023-04-25T04:39:10.211Z,80.16
2023-04-25T04:41:51.882Z,80.99
2023-04-25T04:44:45.653Z,81.74
2023-04-25T04:47:32.200Z,82.00
2023-04-25T04:50:19.231Z,82.97
2023-04-25T04:53:06.893Z,82.55
2023-04-25T04:56:03.540Z,83.16
2023-04-25T04:58:50.149Z,82.75
2023-04-25T05:01:37.168Z,82.98
2023-04-25T05:04:19.073Z,84.67
2023-04-25T05:07:07.103Z,84.98
2023-04-25T05:09:52.377Z,85.67
2023-04-25T05:12:43.802Z,85.54
2023-04-25T05:15:33.446Z,85.24
2023-04-25T05:18:20.567Z,85.71
2023-04-25T05:21:18.429Z,86.84
2023-04-25T05:24:00.896Z,86.95
2023-04-25T05:26:48.499Z,86.46
2023-04-25T05:29:39.427Z,87.23
2023-04-25T05:32:27.016Z,86.85
2023-04-25T05:34:54.971Z,86.27
2023-04-25T05:37:27.465Z,87.66
2023-04-25T05:39:59.246Z,87.85
2023-04-25T05:42:49.836Z,87.15
2023-04-25T05:45:36.016Z,87.32
2023-04-25T05:48:31.305Z,87.22
2023-04-25T05:51:10.279Z,86.92
2023-04-25T05:53:50.230Z,86.29
2023-04-25T05:56:18.116Z,86.17
2023-04-25T05:58:49.290Z,85.52
2023-04-25T06:01:17.852Z,85.56
2023-04-25T06:03:46.311Z,85.33
2023-04-25T06:06:14.333Z,85.88
2023-04-25T06:08:42.182Z,86.05
2023-04-25T06:11:12.501Z,85.02
2023-04-25T06:13:40.381Z,84.32
2023-04-25T06:16:09.910Z,84.72
2023-04-25T06:18:37.703Z,85.32
2023-04-25T06:21:05.843Z,82.59
2023-04-25T06:23:34.715Z,80.85
2023-04-25T06:26:08.421Z,83.02
2023-04-25T06:28:39.168Z,82.66
2023-04-25T06:31:06.880Z,82.95
2023-04-25T06:33:35.872Z,82.67
2023-04-25T06:36:05.283Z,81.74
2023-04-25T06:38:33.516Z,81.93
2023-04-25T06:41:01.216Z,80.97
2023-04-25T06:43:34.211Z,78.60
2023-04-25T06:46:20.759Z,81.82
2023-04-25T06:48:52.617Z,81.16
2023-04-25T06:51:23.604Z,81.66
2023-04-25T06:53:52.247Z,80.91
2023-04-25T06:56:29.286Z,81.28
2023-04-25T06:59:03.467Z,81.43
2023-04-25T07:01:39.086Z,81.57
2023-04-25T07:04:14.400Z,81.74
2023-04-25T07:06:49.214Z,80.46
2023-04-25T07:09:19.656Z,80.08
2023-04-25T07:11:49.203Z,79.53
2023-04-25T07:14:17.229Z,79.01
2023-04-25T07:16:44.873Z,79.01
2023-04-25T07:19:14.152Z,77.57
2023-04-25T07:21:41.972Z,79.15
2023-04-25T07:24:09.905Z,76.72
2023-04-25T07:26:41.987Z,77.74
2023-04-25T07:29:39.061Z,76.95
2023-04-25T07:32:06.840Z,77.26
2023-04-25T07:34:38.205Z,74.70
2023-04-25T07:37:05.905Z,74.73
2023-04-25T07:39:41.167Z,77.96
2023-04-25T07:42:09.371Z,76.65
2023-04-25T07:44:41.087Z,73.72
2023-04-25T07:47:11.783Z,73.49
2023-04-25T07:49:41.146Z,73.91
2023-04-25T07:52:08.776Z,74.09
2023-04-25T07:54:39.155Z,74.44
2023-04-25T07:57:15.111Z,71.95
2023-04-25T07:59:43.528Z,69.94
2023-04-25T08:02:11.156Z,66.71
2023-04-25T08:04:41.755Z,69.44
2023-04-25T08:07:11.856Z,67.49
2023-04-25T08:09:48.805Z,65.00
2023-04-25T08:12:24.534Z,68.74
2023-04-25T08:14:52.905Z,65.91
2023-04-25T08:17:21.013Z,64.98
2023-04-25T08:19:50.123Z,64.22
2023-04-25T08:22:25.357Z,64.08
2023-04-25T08:25:01.234Z,64.43
2023-04-25T08:27:29.007Z,59.50
2023-04-25T08:29:59.032Z,61.94
2023-04-25T08:32:28.031Z,60.30
2023-04-25T08:35:13.416Z,60.02
2023-04-25T08:37:41.147Z,60.08
2023-04-25T08:40:15.889Z,59.44
2023-04-25T08:42:47.675Z,60.11
2023-04-25T08:45:15.737Z,61.94
2023-04-25T08:47:47.397Z,64.27
2023-04-25T08:50:17.053Z,63.83
2023-04-25T08:52:46.587Z,67.12
2023-04-25T08:55:16.032Z,66.65
2023-04-25T08:57:44.730Z,65.84
2023-04-25T09:00:14.266Z,69.62
2023-04-25T09:02:45.466Z,68.23
2023-04-25T09:05:16.354Z,67.38
2023-04-25T09:07:45.518Z,67.43
2023-04-25T09:10:13.318Z,69.20
2023-04-25T09:12:41.695Z,68.56
2023-04-25T09:15:12.709Z,67.61
2023-04-25T09:18:12.779Z,64.06
2023-04-25T09:21:00.812Z,66.03
2023-04-25T09:23:33.946Z,67.42
2023-04-25T09:26:01.757Z,68.97
2023-04-25T09:28:31.006Z,74.27
2023-04-25T09:31:02.173Z,76.55
2023-04-25T09:33:39.803Z,77.94
2023-04-25T09:36:12.128Z,78.40
2023-04-25T09:38:57.980Z,77.36
2023-04-25T09:41:30.246Z,77.09
2023-04-25T09:44:02.402Z,75.27
2023-04-25T09:46:37.345Z,75.16
2023-04-25T09:49:08.766Z,74.56
2023-04-25T09:51:56.188Z,72.62
2023-04-25T09:54:25.175Z,71.27
2023-04-25T09:57:08.431Z,68.81
2023-04-25T09:59:40.260Z,66.58
2023-04-25T10:02:10.365Z,62.70
2023-04-25T10:04:40.873Z,66.73
2023-04-25T10:07:19.715Z,65.55
2023-04-25T10:09:51.861Z,66.11
2023-04-25T10:12:19.943Z,65.17
2023-04-25T10:14:48.614Z,67.65
2023-04-25T10:17:16.575Z,67.83
2023-04-25T10:19:44.384Z,66.89
2023-04-25T10:22:16.946Z,65.49
2023-04-25T10:24:47.269Z,68.07
2023-04-25T10:27:15.354Z,68.22
2023-04-25T10:29:44.266Z,68.34
2023-04-25T10:32:12.228Z,69.31
2023-04-25T10:34:41.906Z,71.66
2023-04-25T10:37:12.936Z,71.54
2023-04-25T10:39:42.770Z,73.83
2023-04-25T10:42:11.934Z,80.43
2023-04-25T10:44:40.594Z,83.38
2023-04-25T10:47:10.328Z,80.26
2023-04-25T10:49:40.140Z,80.38
2023-04-25T10:52:27.496Z,82.80
2023-04-25T10:54:56.905Z,82.92
2023-04-25T10:57:34.424Z,83.17
2023-04-25T11:00:11.957Z,85.65
2023-04-25T11:02:44.075Z,85.40
2023-04-25T11:05:12.032Z,86.20
2023-04-25T11:07:48.050Z,83.94
2023-04-25T11:10:21.225Z,84.05
2023-04-25T11:12:50.884Z,84.88
2023-04-25T11:15:18.511Z,82.89
2023-04-25T11:17:47.587Z,81.73
2023-04-25T11:20:16.507Z,82.28
2023-04-25T11:22:47.631Z,81.88
2023-04-25T11:25:17.639Z,82.87
2023-04-25T11:27:53.441Z,81.84
2023-04-25T11:30:22.731Z,81.80
2023-04-25T11:32:51.166Z,81.43
2023-04-25T11:35:18.815Z,81.46
2023-04-25T11:37:46.917Z,81.91
2023-04-25T11:40:14.810Z,82.67
2023-04-25T11:42:46.939Z,79.81
2023-04-25T11:45:16.461Z,80.92
2023-04-25T11:47:44.261Z,80.41
2023-04-25T11:50:12.392Z,80.21
2023-04-25T11:52:41.159Z,81.69
2023-04-25T11:55:11.461Z,82.30
2023-04-25T11:57:41.565Z,83.76
2023-04-25T12:00:18.125Z,82.47
2023-04-25T12:02:49.514Z,82.53
2023-04-25T12:05:31.066Z,84.88
2023-04-25T12:08:11.380Z,83.81
2023-04-25T12:10:40.354Z,82.23
2023-04-25T12:13:21.881Z,80.53
2023-04-25T12:15:49.805Z,84.16
2023-04-25T12:18:21.463Z,82.57
2023-04-25T12:20:49.224Z,82.21
2023-04-25T12:23:16.867Z,80.60
2023-04-25T12:25:47.935Z,81.55
2023-04-25T12:28:17.758Z,80.44
2023-04-25T12:30:59.804Z,80.42
2023-04-25T12:33:31.345Z,83.28
2023-04-25T12:35:59.577Z,81.51
2023-04-25T12:38:28.464Z,81.53
2023-04-25T12:40:56.278Z,80.79
2023-04-25T12:43:24.428Z,82.03
2023-04-25T12:45:52.852Z,81.32
2023-04-25T12:48:21.740Z,82.72
2023-04-25T12:50:52.642Z,80.86
2023-04-25T12:53:21.635Z,80.62
2023-04-25T12:55:50.021Z,79.76
2023-04-25T12:58:19.426Z,81.51
2023-04-25T13:00:47.700Z,79.71
2023-04-25T13:03:15.741Z,81.10
2023-04-25T13:05:44.168Z,80.76
2023-04-25T13:08:13.600Z,80.82
2023-04-25T13:10:41.329Z,81.82
2023-04-25T13:13:09.607Z,82.31
2023-04-25T13:15:37.476Z,82.85
2023-04-25T13:18:05.532Z,83.57
2023-04-25T13:20:33.320Z,82.25
2023-04-25T13:23:02.814Z,83.15
2023-04-25T13:25:32.188Z,83.25
2023-04-25T13:27:59.894Z,86.51
2023-04-25T13:30:27.664Z,83.78
2023-04-25T13:32:58.105Z,81.46
2023-04-25T13:35:25.970Z,82.58
2023-04-25T13:37:53.746Z,81.43
2023-04-25T13:40:22.883Z,79.70
2023-04-25T13:42:53.724Z,79.86
2023-04-25T13:45:21.599Z,80.36
2023-04-25T13:47:49.474Z,81.78
2023-04-25T13:50:17.177Z,84.31
2023-04-25T13:52:46.369Z,83.84
2023-04-25T13:55:13.969Z,83.87
2023-04-25T13:57:41.827Z,83.85
2023-04-25T14:00:12.247Z,85.93
2023-04-25T14:02:40.326Z,84.16
2023-04-25T14:05:08.900Z,85.80
2023-04-25T14:07:37.031Z,84.55
2023-04-25T14:10:06.614Z,84.91
2023-04-25T14:12:34.851Z,83.80
2023-04-25T14:15:02.520Z,83.15
2023-04-25T14:17:31.665Z,84.18
2023-04-25T14:19:59.382Z,84.18
2023-04-25T14:22:27.524Z,83.90
2023-04-25T14:24:56.527Z,83.75
2023-04-25T14:27:24.149Z,84.82
2023-04-25T14:29:51.844Z,83.97
2023-04-25T14:32:19.458Z,82.12
2023-04-25T14:34:48.520Z,83.16
2023-04-25T14:37:18.124Z,82.61
2023-04-25T14:39:46.491Z,82.83
2023-04-25T14:42:14.238Z,83.38
2023-04-25T14:44:42.270Z,83.01
2023-04-25T14:47:09.945Z,83.86
2023-04-25T14:49:37.687Z,83.54
2023-04-25T14:52:07.322Z,82.91
2023-04-25T14:54:35.068Z,80.39
2023-04-25T14:57:03.165Z,78.20
2023-04-25T14:59:30.798Z,77.40
2023-04-25T15:01:59.748Z,76.21
2023-04-25T15:04:28.098Z,79.22
2023-04-25T15:06:56.999Z,72.95
2023-04-25T15:09:26.157Z,75.17
2023-04-25T15:11:53.814Z,75.58
2023-04-25T15:14:21.629Z,76.89
2023-04-25T15:16:49.316Z,78.17
2023-04-25T15:19:17.124Z,76.31
2023-04-25T15:21:44.746Z,75.12
2023-04-25T15:24:13.038Z,75.61
2023-04-25T15:26:42.194Z,73.45
2023-04-25T15:29:10.043Z,74.46
2023-04-25T15:31:37.697Z,74.62
2023-04-25T15:34:06.231Z,75.91
2023-04-25T15:36:33.917Z,77.51
2023-04-25T15:39:01.732Z,76.60
2023-04-25T15:41:30.549Z,78.51
2023-04-25T15:44:02.136Z,75.02
2023-04-25T15:46:31.146Z,75.84
2023-04-25T15:48:58.949Z,75.29
2023-04-25T15:51:26.917Z,75.81
2023-04-25T15:53:54.813Z,75.48
2023-04-25T15:56:22.642Z,74.75
2023-04-25T15:58:50.879Z,73.21
2023-04-25T16:01:19.843Z,73.06
2023-04-25T16:03:47.492Z,68.53
2023-04-25T16:06:15.462Z,67.38
2023-04-25T16:08:43.203Z,70.03
2023-04-25T16:11:10.810Z,69.74
2023-04-25T16:13:38.803Z,70.81
2023-04-25T16:16:07.097Z,71.42
2023-04-25T16:18:36.292Z,70.18
2023-04-25T16:21:04.617Z,72.15
2023-04-25T16:23:32.301Z,71.16
2023-04-25T16:25:59.891Z,72.06
2023-04-25T16:28:27.619Z,73.06
2023-04-25T16:30:55.766Z,73.68
2023-04-25T16:33:23.355Z,74.49
2023-04-25T16:35:53.037Z,75.79
2023-04-25T16:38:21.696Z,76.75
2023-04-25T16:40:49.281Z,78.52
2023-04-25T16:43:19.824Z,78.82
2023-04-25T16:45:47.573Z,77.19
2023-04-25T16:48:16.247Z,78.98
2023-04-25T16:50:43.974Z,76.44
2023-04-25T16:53:12.937Z,75.97
2023-04-25T16:55:40.671Z,75.90
2023-04-25T16:58:11.161Z,75.02
2023-04-25T17:00:39.351Z,75.16
2023-04-25T17:03:07.426Z,72.13
2023-04-25T17:05:35.339Z,72.19
2023-04-25T17:08:02.951Z,72.29
2023-04-25T17:10:32.292Z,72.14
2023-04-25T17:12:59.863Z,71.49
2023-04-25T17:15:28.212Z,72.00
2023-04-25T17:17:55.909Z,74.38
2023-04-25T17:20:23.766Z,74.63
2023-04-25T17:22:51.337Z,76.05
2023-04-25T17:25:18.942Z,76.71
2023-04-25T17:27:47.848Z,78.22
2023-04-25T17:30:16.068Z,78.48
2023-04-25T17:32:43.707Z,78.96
2023-04-25T17:35:11.797Z,79.46
2023-04-25T17:37:40.763Z,79.38
2023-04-25T17:40:11.984Z,78.82
2023-04-25T17:42:40.520Z,79.33
2023-04-25T17:45:12.840Z,79.47
2023-04-25T17:47:41.676Z,78.50
2023-04-25T17:50:09.776Z,77.06
2023-04-25T17:52:38.596Z,77.18
2023-04-25T17:55:07.443Z,77.68
2023-04-25T17:57:35.153Z,76.57
2023-04-25T18:00:05.805Z,76.63
2023-04-25T18:02:41.305Z,75.94
2023-04-25T18:05:10.985Z,76.16
2023-04-25T18:07:39.054Z,75.63
2023-04-25T18:10:08.365Z,75.60
2023-04-25T18:12:36.925Z,75.17
2023-04-25T18:15:06.779Z,76.01
2023-04-25T18:17:39.664Z,75.44
2023-04-25T18:20:14.890Z,76.17
2023-04-25T18:22:43.656Z,76.33
2023-04-25T18:25:12.001Z,76.68
2023-04-25T18:27:40.320Z,77.37
2023-04-25T18:30:09.561Z,77.33
2023-04-25T18:32:37.211Z,77.16
2023-04-25T18:35:05.151Z,78.13
2023-04-25T18:37:34.499Z,78.54
2023-04-25T18:40:06.105Z,78.48
2023-04-25T18:42:33.968Z,78.30
2023-04-25T18:45:01.594Z,78.44
2023-04-25T18:47:29.164Z,78.40
2023-04-25T18:49:56.786Z,78.19
2023-04-25T18:52:26.178Z,79.26
2023-04-25T18:54:55.128Z,79.03
2023-04-25T18:57:22.967Z,79.59
2023-04-25T18:59:50.642Z,79.35
2023-04-25T19:02:19.153Z,79.36
2023-04-25T19:04:46.849Z,79.05
2023-04-25T19:07:14.985Z,78.73
2023-04-25T19:09:42.639Z,78.43
2023-04-25T19:12:11.971Z,78.19
2023-04-25T19:14:39.574Z,78.63
2023-04-25T19:17:07.385Z,78.93
2023-04-25T19:19:35.034Z,78.81
2023-04-25T19:22:02.923Z,78.40
2023-04-25T19:24:31.819Z,77.68
2023-04-25T19:27:00.394Z,77.76
2023-04-25T19:29:30.187Z,77.73
2023-04-25T19:31:59.669Z,78.64
2023-04-25T19:34:27.350Z,78.88
2023-04-25T19:36:55.723Z,77.97
2023-04-25T19:39:23.743Z,77.92
2023-04-25T19:41:51.810Z,78.35
2023-04-25T19:44:19.512Z,78.69
2023-04-25T19:46:49.500Z,79.17
2023-04-25T19:49:17.199Z,79.34
2023-04-25T19:51:46.586Z,78.62
2023-04-25T19:54:14.326Z,78.35
2023-04-25T19:56:42.035Z,78.11
2023-04-25T19:59:09.621Z,77.74
2023-04-25T20:01:37.200Z,77.70
2023-04-25T20:04:06.339Z,77.90
2023-04-25T20:06:33.938Z,77.94
2023-04-25T20:09:01.673Z,78.36
2023-04-25T20:11:29.615Z,77.93
2023-04-25T20:13:57.247Z,78.27
2023-04-25T20:16:25.046Z,78.88
2023-04-25T20:18:53.451Z,79.40
2023-04-25T20:21:23.184Z,80.11
2023-04-25T20:23:50.959Z,79.75
2023-04-25T20:26:18.966Z,80.16
2023-04-25T20:28:47.296Z,79.70
2023-04-25T20:31:14.906Z,79.85
2023-04-25T20:33:43.743Z,81.78
2023-04-25T20:36:11.404Z,81.73
2023-04-25T20:38:40.682Z,81.80
2023-04-25T20:41:08.313Z,82.61
2023-04-25T20:43:37.357Z,83.27
2023-04-25T20:46:06.281Z,83.03
2023-04-25T20:48:34.329Z,83.67
2023-04-25T20:51:02.361Z,83.79
2023-04-25T20:53:29.941Z,83.66
2023-04-25T20:55:59.448Z,83.62
2023-04-25T20:58:27.445Z,85.35
2023-04-25T21:00:56.342Z,83.95
2023-04-25T21:03:25.978Z,83.04
2023-04-25T21:05:53.701Z,82.92
2023-04-25T21:08:21.437Z,83.44
2023-04-25T21:10:49.046Z,82.01
2023-04-25T21:13:18.270Z,81.24
2023-04-25T21:15:45.981Z,81.49
2023-04-25T21:18:13.626Z,81.97
2023-04-25T21:20:41.330Z,82.26
2023-04-25T21:23:09.313Z,82.17
2023-04-25T21:25:36.907Z,82.07
2023-04-25T21:28:04.792Z,82.50
2023-04-25T21:30:33.753Z,83.16
2023-04-25T21:33:01.661Z,82.92
2023-04-25T21:35:29.272Z,82.64
2023-04-25T21:37:56.982Z,82.78
2023-04-25T21:40:24.602Z,83.05
2023-04-25T21:42:53.506Z,82.33
2023-04-25T21:45:21.579Z,82.02
2023-04-25T21:47:51.144Z,82.38
2023-04-25T21:50:19.413Z,82.63
2023-04-25T21:52:48.220Z,83.08
2023-04-25T21:55:16.460Z,82.44
2023-04-25T21:57:44.215Z,82.30
2023-04-25T22:00:21.050Z,82.40
2023-04-25T22:02:50.369Z,81.98
2023-04-25T22:05:20.268Z,82.43
2023-04-25T22:07:47.893Z,82.73
2023-04-25T22:10:15.462Z,80.88
2023-04-25T22:12:43.470Z,81.08
2023-04-25T22:15:12.779Z,81.70
2023-04-25T22:17:41.061Z,81.64
2023-04-25T22:20:14.009Z,81.64
2023-04-25T22:22:42.044Z,82.05
2023-04-25T22:25:10.056Z,82.05
2023-04-25T22:27:40.858Z,82.00
2023-04-25T22:30:09.773Z,81.33
2023-04-25T22:32:37.522Z,81.11
2023-04-25T22:35:05.902Z,81.06
2023-04-25T22:37:35.956Z,80.80
2023-04-25T22:40:06.914Z,80.25
2023-04-25T22:42:40.130Z,80.80
2023-04-25T22:45:09.259Z,81.11
2023-04-25T22:47:37.852Z,81.17
2023-04-25T22:50:07.897Z,81.53
2023-04-25T22:52:37.505Z,81.47
2023-04-25T22:55:06.424Z,81.15
2023-04-25T22:57:34.204Z,80.64
2023-04-25T23:00:01.801Z,80.72
2023-04-25T23:02:29.630Z,81.01
2023-04-25T23:04:57.339Z,81.02
2023-04-25T23:07:25.138Z,81.40
2023-04-25T23:09:54.134Z,82.10
2023-04-25T23:12:21.704Z,82.88
2023-04-25T23:14:50.845Z,84.28
2023-04-25T23:17:18.591Z,83.70
2023-04-25T23:19:46.425Z,83.71
2023-04-25T23:22:14.229Z,84.85
2023-04-25T23:24:42.128Z,86.57
2023-04-25T23:27:11.403Z,86.97
2023-04-25T23:29:40.529Z,86.89
2023-04-25T23:32:08.823Z,86.39
2023-04-25T23:34:36.656Z,86.64
2023-04-25T23:37:04.468Z,86.38
2023-04-25T23:39:32.391Z,86.81
2023-04-25T23:42:00.400Z,87.11
2023-04-25T23:44:29.449Z,87.00
2023-04-25T23:46:57.028Z,87.21
2023-04-25T23:49:24.882Z,87.11
2023-04-25T23:51:52.445Z,87.21
2023-04-25T23:54:20.182Z,87.73
2023-04-25T23:56:47.765Z,87.03
2023-04-25T23:59:16.142Z,87.40
